Time;durP1;ratioP1;P1;durP2;ratioP2;P2;SDS_P1;SDS_P2;PMS_P1;PMS_P2;Temp;Humidity;BMP_temperature;BMP_pressure;BME280_temperature;BME280_humidity;BME280_pressure;Samples;Min_cycle;Max_cycle;Signal;HPM_P1;HPM_P2
2022/04/05 00:02:03;;;;;;;6.22;2.72;;;;;;;;;;5047794;28;20061;-70
2022/04/05 00:04:33;;;;;;;5.88;2.40;;;;;;;;;;5048119;28;20753;-69
2022/04/05 00:07:04;;;;;;;4.88;1.90;;;;;;;;;;5032056;28;20053;-69
2022/04/05 00:09:35;;;;;;;8.30;2.28;;;;;;;;;;5047403;28;20068;-67
2022/04/05 00:12:06;;;;;;;4.93;1.95;;;;;;;;;;5067205;28;20523;-70
2022/04/05 00:14:37;;;;;;;6.45;2.58;;;;;;;;;;5067617;28;20052;-70
2022/04/05 00:17:07;;;;;;;7.35;2.78;;;;;;;;;;5078626;28;20052;-70
2022/04/05 00:19:38;;;;;;;6.00;2.70;;;;;;;;;;5054455;28;20066;-70
2022/04/05 00:22:09;;;;;;;7.03;2.47;;;;;;;;;;5034802;28;20432;-69
2022/04/05 00:24:39;;;;;;;6.07;3.00;;;;;;;;;;5070236;28;20052;-70
2022/04/05 00:27:10;;;;;;;4.55;2.55;;;;;;;;;;5075001;28;20048;-70
2022/04/05 00:29:41;;;;;;;5.07;2.55;;;;;;;;;;5027662;28;20054;-70
2022/04/05 00:32:12;;;;;;;6.47;2.58;;;;;;;;;;5027699;28;20537;-69
2022/04/05 00:34:42;;;;;;;4.80;2.33;;;;;;;;;;4996159;28;20050;-69
2022/04/05 00:37:13;;;;;;;5.68;2.22;;;;;;;;;;5011781;28;20061;-68
2022/04/05 00:39:45;;;;;;;6.00;2.67;;;;;;;;;;5027888;28;20050;-66
2022/04/05 00:42:15;;;;;;;7.40;2.00;;;;;;;;;;5014859;28;20045;-69
2022/04/05 00:44:45;;;;;;;4.35;2.20;;;;;;;;;;5048035;28;20052;-69
2022/04/05 00:47:20;;;;;;;5.10;2.72;;;;;;;;;;5047227;28;20064;-70
2022/04/05 00:49:53;;;;;;;6.15;2.10;;;;;;;;;;5033007;28;20053;-69
2022/04/05 00:52:24;;;;;;;4.95;2.50;;;;;;;;;;5049258;28;20080;-69
2022/04/05 00:54:56;;;;;;;6.30;2.22;;;;;;;;;;5047357;28;20440;-68
2022/04/05 00:57:30;;;;;;;7.07;2.30;;;;;;;;;;5021982;28;20042;-69
2022/04/05 01:00:06;;;;;;;6.07;2.10;;;;;;;;;;5007644;28;20050;-68
2022/04/05 01:02:38;;;;;;;6.22;2.50;;;;;;;;;;5023519;28;20058;-68
2022/04/05 01:05:09;;;;;;;5.28;2.90;;;;;;;;;;5015843;28;20394;-68
2022/04/05 01:07:41;;;;;;;7.53;2.17;;;;;;;;;;5011676;28;20056;-70
2022/04/05 01:10:12;;;;;;;4.45;1.80;;;;;;;;;;5007403;28;20049;-68
2022/04/05 01:12:43;;;;;;;6.45;2.65;;;;;;;;;;4988204;28;20058;-70
2022/04/05 01:15:14;;;;;;;5.97;2.90;;;;;;;;;;4987902;28;20066;-67
2022/04/05 01:18:04;;;;;;;6.80;2.28;;;;;;;;;;4970795;28;20051;-69
2022/04/05 01:20:36;;;;;;;5.20;2.10;;;;;;;;;;4972149;28;20054;-69
2022/04/05 01:23:08;;;;;;;6.93;2.10;;;;;;;;;;4933703;29;20062;-69
2022/04/05 01:25:43;;;;;;;5.68;2.60;;;;;;;;;;4933583;29;20068;-69
2022/04/05 01:28:15;;;;;;;8.23;2.17;;;;;;;;;;4948425;29;20051;-67
2022/04/05 01:30:46;;;;;;;10.80;2.42;;;;;;;;;;4949295;29;20078;-69
2022/04/05 01:33:17;;;;;;;7.30;2.67;;;;;;;;;;4952628;29;20154;-68
2022/04/05 01:35:49;;;;;;;14.20;2.50;;;;;;;;;;4952994;29;20059;-70
2022/04/05 01:38:20;;;;;;;6.35;2.50;;;;;;;;;;4952291;29;20075;-69
2022/04/05 01:40:55;;;;;;;8.27;2.10;;;;;;;;;;4949995;29;20063;-69
2022/04/05 01:43:26;;;;;;;9.85;2.80;;;;;;;;;;4949155;29;20066;-66
2022/04/05 01:45:57;;;;;;;4.72;2.05;;;;;;;;;;4952281;29;20055;-67
2022/04/05 01:48:28;;;;;;;5.05;2.67;;;;;;;;;;4951222;28;20055;-69
2022/04/05 01:51:00;;;;;;;5.03;2.20;;;;;;;;;;4937566;28;20059;-68
2022/04/05 01:53:32;;;;;;;5.82;2.97;;;;;;;;;;4918135;29;20071;-69
2022/04/05 01:56:03;;;;;;;6.57;2.15;;;;;;;;;;4947783;28;20067;-69
2022/04/05 01:58:36;;;;;;;6.78;2.90;;;;;;;;;;4968592;28;20046;-66
2022/04/05 02:01:08;;;;;;;8.88;2.75;;;;;;;;;;4932615;29;20055;-68
2022/04/05 02:03:39;;;;;;;8.60;3.30;;;;;;;;;;4905250;29;20055;-68
2022/04/05 02:06:10;;;;;;;5.40;2.15;;;;;;;;;;4860099;29;20069;-69
2022/04/05 02:08:42;;;;;;;8.60;1.77;;;;;;;;;;4876484;29;20076;-67
2022/04/05 02:11:13;;;;;;;8.10;1.92;;;;;;;;;;4900029;29;20428;-65
2022/04/05 02:13:46;;;;;;;5.55;2.35;;;;;;;;;;4929934;29;20051;-66
2022/04/05 02:16:17;;;;;;;9.80;2.40;;;;;;;;;;4950237;28;20078;-66
2022/04/05 02:18:48;;;;;;;6.90;2.08;;;;;;;;;;4952279;28;20047;-67
2022/04/05 02:21:19;;;;;;;5.07;1.88;;;;;;;;;;4952462;29;20074;-65
2022/04/05 02:23:51;;;;;;;7.53;2.53;;;;;;;;;;4933274;29;20048;-66
2022/04/05 02:26:29;;;;;;;4.63;1.95;;;;;;;;;;4903663;29;20063;-68
2022/04/05 02:29:00;;;;;;;6.63;1.75;;;;;;;;;;4932600;29;20051;-67
2022/04/05 02:31:34;;;;;;;9.90;2.35;;;;;;;;;;4914070;29;20631;-66
2022/04/05 02:34:07;;;;;;;5.35;2.17;;;;;;;;;;4913927;29;20048;-66
2022/04/05 02:36:42;;;;;;;12.02;2.70;;;;;;;;;;4922963;29;20048;-67
2022/04/05 02:39:16;;;;;;;7.57;2.67;;;;;;;;;;4932849;29;20055;-67
2022/04/05 02:41:52;;;;;;;7.63;2.70;;;;;;;;;;4932592;29;20063;-67
2022/04/05 02:44:24;;;;;;;8.82;2.60;;;;;;;;;;4932527;29;20059;-68
2022/04/05 02:47:02;;;;;;;11.25;1.83;;;;;;;;;;4933123;29;20489;-67
2022/04/05 02:49:36;;;;;;;8.80;2.58;;;;;;;;;;4932568;29;20082;-67
2022/04/05 02:52:15;;;;;;;4.68;2.10;;;;;;;;;;4902772;29;20056;-66
2022/04/05 02:54:53;;;;;;;7.28;2.50;;;;;;;;;;4913393;29;20052;-66
2022/04/05 02:57:26;;;;;;;9.80;2.75;;;;;;;;;;4914185;29;20059;-66
2022/04/05 02:59:59;;;;;;;7.50;2.28;;;;;;;;;;4929272;29;20107;-66
2022/04/05 03:02:31;;;;;;;7.35;2.50;;;;;;;;;;4915058;29;20059;-66
2022/04/05 03:05:05;;;;;;;7.82;2.30;;;;;;;;;;4894200;29;20505;-66
2022/04/05 03:07:37;;;;;;;9.30;2.30;;;;;;;;;;4878936;29;20075;-66
2022/04/05 03:10:11;;;;;;;7.47;2.30;;;;;;;;;;4895264;29;20563;-66
2022/04/05 03:12:45;;;;;;;5.03;2.40;;;;;;;;;;4913375;29;20079;-67
2022/04/05 03:15:16;;;;;;;5.20;2.53;;;;;;;;;;4893960;29;20048;-67
2022/04/05 03:17:48;;;;;;;11.40;2.30;;;;;;;;;;4876433;29;20053;-67
2022/04/05 03:20:23;;;;;;;5.68;2.40;;;;;;;;;;4878373;29;20080;-67
2022/04/05 03:22:56;;;;;;;4.78;2.38;;;;;;;;;;4875503;29;20053;-67
2022/04/05 03:25:28;;;;;;;10.80;2.00;;;;;;;;;;4860244;29;20402;-67
2022/04/05 03:28:03;;;;;;;5.90;2.40;;;;;;;;;;4856972;29;20046;-66
2022/04/05 03:30:35;;;;;;;11.38;2.88;;;;;;;;;;4857208;29;20160;-67
2022/04/05 03:33:07;;;;;;;10.00;2.28;;;;;;;;;;4871266;29;20045;-65
2022/04/05 03:35:40;;;;;;;8.63;2.80;;;;;;;;;;4875335;29;20053;-67
2022/04/05 03:38:12;;;;;;;6.50;2.10;;;;;;;;;;4890434;29;20057;-67
2022/04/05 03:40:43;;;;;;;4.10;1.90;;;;;;;;;;4861465;29;20057;-67
2022/04/05 03:43:14;;;;;;;5.65;2.25;;;;;;;;;;4858646;29;20061;-66
2022/04/05 03:45:51;;;;;;;4.65;2.10;;;;;;;;;;4866220;29;20433;-67
2022/04/05 03:48:26;;;;;;;4.43;2.33;;;;;;;;;;4870996;29;20049;-68
2022/04/05 03:51:08;;;;;;;7.45;2.22;;;;;;;;;;4857128;29;20510;-67
2022/04/05 03:53:44;;;;;;;6.43;2.60;;;;;;;;;;4871835;29;20057;-68
2022/04/05 03:56:19;;;;;;;6.95;2.25;;;;;;;;;;4875125;29;20057;-67
2022/04/05 03:58:52;;;;;;;4.90;2.25;;;;;;;;;;4841246;29;20619;-67
2022/04/05 04:01:23;;;;;;;5.05;2.03;;;;;;;;;;4909542;29;20055;-68
2022/04/05 04:03:54;;;;;;;11.68;3.05;;;;;;;;;;4912710;29;20060;-67
2022/04/05 04:06:26;;;;;;;6.68;2.22;;;;;;;;;;4893342;29;20052;-68
2022/04/05 04:08:58;;;;;;;10.25;2.70;;;;;;;;;;4938806;28;20043;-66
2022/04/05 04:11:28;;;;;;;8.93;2.75;;;;;;;;;;4870540;29;20564;-67
2022/04/05 04:14:00;;;;;;;11.52;2.50;;;;;;;;;;4908243;29;20408;-67
2022/04/05 04:16:31;;;;;;;8.73;3.28;;;;;;;;;;4862705;29;20049;-67
2022/04/05 04:19:03;;;;;;;5.72;3.10;;;;;;;;;;4893829;29;20064;-67
2022/04/05 04:21:36;;;;;;;6.38;3.25;;;;;;;;;;4863030;29;20165;-68
2022/04/05 04:24:07;;;;;;;12.27;3.53;;;;;;;;;;4877464;29;20053;-66
2022/04/05 04:26:39;;;;;;;5.20;3.00;;;;;;;;;;4903681;29;20505;-66
2022/04/05 04:29:10;;;;;;;5.63;2.35;;;;;;;;;;4924934;29;20055;-66
2022/04/05 04:31:41;;;;;;;4.88;2.30;;;;;;;;;;4893489;29;20060;-67
2022/04/05 04:34:12;;;;;;;6.50;2.65;;;;;;;;;;4862597;29;20068;-67
2022/04/05 04:36:43;;;;;;;7.88;2.85;;;;;;;;;;4915118;29;20074;-66
2022/04/05 04:39:17;;;;;;;7.95;3.70;;;;;;;;;;4930728;29;20055;-67
2022/04/05 04:41:47;;;;;;;7.18;3.92;;;;;;;;;;4946764;28;20087;-67
2022/04/05 04:44:17;;;;;;;4.72;3.00;;;;;;;;;;4942359;29;20051;-67
2022/04/05 04:46:48;;;;;;;7.63;3.33;;;;;;;;;;4950646;29;21008;-67
2022/04/05 04:49:18;;;;;;;6.25;3.65;;;;;;;;;;4961084;28;20085;-67
2022/04/05 04:51:49;;;;;;;6.82;3.47;;;;;;;;;;4969722;28;20051;-68
2022/04/05 04:54:19;;;;;;;6.00;2.50;;;;;;;;;;4944945;28;20054;-66
2022/04/05 04:56:50;;;;;;;5.63;2.60;;;;;;;;;;4993109;28;20050;-67
2022/04/05 04:59:21;;;;;;;5.13;2.95;;;;;;;;;;4992631;28;20062;-66
2022/04/05 05:01:51;;;;;;;4.30;2.15;;;;;;;;;;4993237;28;20077;-66
2022/04/05 05:04:21;;;;;;;5.68;3.10;;;;;;;;;;4976996;28;20062;-67
2022/04/05 05:06:53;;;;;;;4.10;2.20;;;;;;;;;;4993016;28;20050;-67
2022/04/05 05:09:24;;;;;;;6.47;3.08;;;;;;;;;;4992639;28;20400;-66
2022/04/05 05:11:55;;;;;;;8.63;2.88;;;;;;;;;;4993104;28;20042;-67
2022/04/05 05:14:27;;;;;;;7.95;2.75;;;;;;;;;;4992535;28;20463;-66
2022/04/05 05:16:58;;;;;;;10.27;3.42;;;;;;;;;;4983404;28;20126;-67
2022/04/05 05:19:29;;;;;;;6.32;2.72;;;;;;;;;;4992826;28;20061;-67
2022/04/05 05:21:59;;;;;;;9.95;3.40;;;;;;;;;;5008713;28;20065;-67
2022/04/05 05:24:29;;;;;;;8.82;3.53;;;;;;;;;;4992431;28;20069;-67
2022/04/05 05:27:00;;;;;;;10.40;3.55;;;;;;;;;;4992382;28;20050;-67
2022/04/05 05:29:31;;;;;;;12.88;3.78;;;;;;;;;;4992466;28;20057;-68
2022/04/05 05:32:01;;;;;;;12.35;3.13;;;;;;;;;;5008602;28;20077;-67
2022/04/05 05:34:31;;;;;;;17.20;3.60;;;;;;;;;;5002297;28;20395;-67
2022/04/05 05:37:03;;;;;;;6.95;3.35;;;;;;;;;;5011760;28;20053;-66
2022/04/05 05:39:33;;;;;;;7.75;3.35;;;;;;;;;;5011697;28;20046;-67
2022/04/05 05:42:08;;;;;;;8.32;3.30;;;;;;;;;;4985220;28;20064;-66
2022/04/05 05:44:38;;;;;;;8.82;2.63;;;;;;;;;;5031312;28;20389;-67
2022/04/05 05:47:09;;;;;;;11.23;2.83;;;;;;;;;;5031339;28;20049;-66
2022/04/05 05:49:40;;;;;;;8.48;2.80;;;;;;;;;;5031486;28;20046;-67
2022/04/05 05:52:10;;;;;;;6.93;3.40;;;;;;;;;;5031311;28;20048;-66
2022/04/05 05:54:41;;;;;;;5.97;3.45;;;;;;;;;;5042912;28;20057;-66
2022/04/05 05:57:12;;;;;;;9.07;2.55;;;;;;;;;;5052228;28;20412;-67
2022/04/05 05:59:42;;;;;;;10.73;3.80;;;;;;;;;;5053444;28;20073;-67
2022/04/05 06:02:19;;;;;;;8.35;2.60;;;;;;;;;;5053683;28;20048;-67
2022/04/05 06:04:49;;;;;;;6.85;3.53;;;;;;;;;;5050648;28;20064;-67
2022/04/05 06:07:20;;;;;;;7.57;2.70;;;;;;;;;;5050755;28;20493;-68
2022/04/05 06:09:50;;;;;;;6.97;3.83;;;;;;;;;;5017491;28;20524;-67
2022/04/05 06:12:20;;;;;;;6.05;2.85;;;;;;;;;;5051012;28;20172;-67
2022/04/05 06:14:51;;;;;;;5.75;3.13;;;;;;;;;;4990660;28;20046;-66
2022/04/05 06:17:22;;;;;;;6.15;3.13;;;;;;;;;;4968233;28;20055;-68
2022/04/05 06:19:53;;;;;;;9.88;3.13;;;;;;;;;;4952467;29;20063;-67
2022/04/05 06:22:24;;;;;;;6.88;2.92;;;;;;;;;;4952274;29;20051;-67
2022/04/05 06:24:55;;;;;;;7.35;2.97;;;;;;;;;;4971561;28;20058;-67
2022/04/05 06:27:25;;;;;;;29.25;4.07;;;;;;;;;;4939636;28;20059;-67
2022/04/05 06:29:56;;;;;;;19.80;3.88;;;;;;;;;;4971944;28;20050;-67
2022/04/05 06:32:26;;;;;;;8.13;2.75;;;;;;;;;;4971967;28;20055;-67
2022/04/05 06:34:57;;;;;;;12.90;3.05;;;;;;;;;;4971484;28;20070;-67
2022/04/05 06:37:28;;;;;;;6.07;2.90;;;;;;;;;;4939817;28;20065;-67
2022/04/05 06:39:58;;;;;;;8.00;2.53;;;;;;;;;;4971361;28;20059;-65
2022/04/05 06:42:29;;;;;;;6.93;3.28;;;;;;;;;;4990431;28;20094;-67
2022/04/05 06:44:59;;;;;;;6.15;2.40;;;;;;;;;;5000902;28;20053;-67
2022/04/05 06:47:30;;;;;;;11.30;3.15;;;;;;;;;;4961652;28;20061;-67
2022/04/05 06:50:03;;;;;;;14.90;2.22;;;;;;;;;;5010406;28;20067;-68
2022/04/05 06:52:37;;;;;;;10.85;2.53;;;;;;;;;;5000101;28;20608;-67
2022/04/05 06:55:09;;;;;;;15.40;3.00;;;;;;;;;;5006797;28;20050;-67
2022/04/05 06:57:40;;;;;;;6.63;2.83;;;;;;;;;;4990910;28;20413;-68
2022/04/05 07:00:13;;;;;;;10.68;3.33;;;;;;;;;;4985092;28;20054;-66
2022/04/05 07:02:44;;;;;;;8.95;3.22;;;;;;;;;;4971135;28;20050;-68
2022/04/05 07:05:15;;;;;;;10.15;3.15;;;;;;;;;;4970983;28;20063;-68
2022/04/05 07:07:46;;;;;;;4.68;2.45;;;;;;;;;;4932484;29;20054;-68
2022/04/05 07:10:19;;;;;;;6.28;2.75;;;;;;;;;;4885231;29;20052;-68
2022/04/05 07:12:49;;;;;;;9.45;2.33;;;;;;;;;;4932686;29;20091;-69
2022/04/05 07:15:19;;;;;;;5.82;2.22;;;;;;;;;;4931609;29;20071;-66
2022/04/05 07:17:50;;;;;;;17.88;2.58;;;;;;;;;;4932598;29;20071;-66
2022/04/05 07:20:37;;;;;;;21.35;2.28;;;;;;;;;;4932303;29;20056;-68
2022/04/05 07:23:07;;;;;;;5.78;2.58;;;;;;;;;;4951481;29;20062;-67
2022/04/05 07:25:38;;;;;;;12.30;2.35;;;;;;;;;;4951334;29;20128;-67
2022/04/05 07:28:08;;;;;;;10.15;2.15;;;;;;;;;;4919549;29;20066;-68
2022/04/05 07:30:39;;;;;;;6.30;2.55;;;;;;;;;;4976466;28;20059;-67
2022/04/05 07:33:09;;;;;;;13.32;3.10;;;;;;;;;;4922472;28;20852;-68
2022/04/05 07:35:39;;;;;;;10.18;2.80;;;;;;;;;;4970514;28;20054;-68
2022/04/05 07:38:10;;;;;;;12.57;2.35;;;;;;;;;;4970808;28;20059;-66
2022/04/05 07:40:51;;;;;;;12.30;2.35;;;;;;;;;;4963077;28;20503;-66
2022/04/05 07:43:27;;;;;;;11.90;3.03;;;;;;;;;;4970580;28;20066;-66
2022/04/05 07:45:58;;;;;;;8.10;2.15;;;;;;;;;;4952475;28;20084;-68
2022/04/05 07:48:29;;;;;;;5.45;1.85;;;;;;;;;;4973470;28;20054;-67
2022/04/05 07:51:01;;;;;;;6.45;2.17;;;;;;;;;;4989657;28;20843;-68
2022/04/05 07:53:32;;;;;;;5.97;2.30;;;;;;;;;;4989391;28;20050;-67
2022/04/05 07:56:04;;;;;;;13.70;2.78;;;;;;;;;;4989916;28;20058;-67
2022/04/05 07:58:34;;;;;;;4.03;2.53;;;;;;;;;;4941091;28;20417;-67
2022/04/05 08:01:05;;;;;;;10.90;1.90;;;;;;;;;;4961082;28;20062;-67
2022/04/05 08:03:35;;;;;;;11.95;2.95;;;;;;;;;;4937932;28;20081;-68
2022/04/05 08:06:06;;;;;;;6.28;2.40;;;;;;;;;;4969978;28;20055;-68
2022/04/05 08:08:37;;;;;;;5.38;2.08;;;;;;;;;;4982872;28;20054;-67
2022/04/05 08:11:28;;;;;;;6.05;2.97;;;;;;;;;;5004527;28;20490;-67
2022/04/05 08:13:59;;;;;;;8.95;2.08;;;;;;;;;;4993001;28;20062;-67
2022/04/05 08:16:30;;;;;;;8.98;2.67;;;;;;;;;;5009020;28;20058;-66
2022/04/05 08:19:01;;;;;;;5.03;1.83;;;;;;;;;;4992483;28;20053;-67
2022/04/05 08:21:33;;;;;;;6.80;2.13;;;;;;;;;;5009004;28;20097;-66
2022/04/05 08:24:04;;;;;;;5.50;2.22;;;;;;;;;;5008833;28;20502;-67
2022/04/05 08:26:35;;;;;;;5.88;3.00;;;;;;;;;;4992352;28;20406;-67
2022/04/05 08:29:05;;;;;;;9.68;2.78;;;;;;;;;;4989274;28;20085;-68
2022/04/05 08:31:35;;;;;;;4.57;2.22;;;;;;;;;;4992478;28;20050;-66
2022/04/05 08:34:09;;;;;;;5.75;2.83;;;;;;;;;;4988772;28;20121;-67
2022/04/05 08:36:39;;;;;;;9.82;2.45;;;;;;;;;;5002898;28;20061;-67
2022/04/05 08:39:10;;;;;;;7.32;3.45;;;;;;;;;;4988845;28;20057;-67
2022/04/05 08:41:43;;;;;;;13.23;2.67;;;;;;;;;;4972884;28;20046;-66
2022/04/05 08:44:20;;;;;;;7.95;2.03;;;;;;;;;;4988899;28;20061;-66
2022/04/05 08:46:52;;;;;;;10.35;2.28;;;;;;;;;;4973123;28;20046;-66
2022/04/05 08:49:23;;;;;;;8.43;2.53;;;;;;;;;;4989100;28;20054;-66
2022/04/05 08:51:54;;;;;;;8.23;2.50;;;;;;;;;;4957629;28;20055;-66
2022/04/05 08:54:24;;;;;;;6.55;2.72;;;;;;;;;;4988936;28;20070;-66
2022/04/05 08:56:55;;;;;;;10.60;2.92;;;;;;;;;;4977173;28;20055;-66
2022/04/05 08:59:31;;;;;;;19.10;5.05;;;;;;;;;;4953598;28;20047;-66
2022/04/05 09:02:01;;;;;;;25.60;4.78;;;;;;;;;;4953421;28;20069;-66
2022/04/05 09:04:34;;;;;;;20.42;4.53;;;;;;;;;;4963891;28;20055;-66
2022/04/05 09:07:27;;;;;;;21.17;4.10;;;;;;;;;;5001045;28;20525;-65
2022/04/05 09:10:15;;;;;;;19.63;4.93;;;;;;;;;;4979573;28;20064;-65
2022/04/05 09:12:48;;;;;;;32.00;6.68;;;;;;;;;;5008568;28;20058;-66
2022/04/05 09:15:21;;;;;;;21.40;6.47;;;;;;;;;;4992546;28;20054;-66
2022/04/05 09:17:53;;;;;;;29.10;6.15;;;;;;;;;;5029007;28;20057;-66
2022/04/05 09:25:16;;;;;;;33.53;7.25;;;;;;;;;;5028970;28;20041;-66
2022/04/05 09:27:50;;;;;;;35.55;6.72;;;;;;;;;;4979081;28;20096;-67
2022/04/05 09:30:27;;;;;;;34.40;6.80;;;;;;;;;;5011869;28;20053;-66
2022/04/05 09:33:02;;;;;;;31.40;7.30;;;;;;;;;;5011934;28;20064;-66
2022/04/05 09:35:43;;;;;;;36.63;7.78;;;;;;;;;;4988253;28;20046;-67
2022/04/05 09:38:20;;;;;;;31.02;7.03;;;;;;;;;;4980355;28;20047;-66
2022/04/05 09:40:52;;;;;;;28.45;7.60;;;;;;;;;;4991586;28;20061;-65
2022/04/05 09:43:32;;;;;;;29.02;7.47;;;;;;;;;;5006267;28;20045;-66
2022/04/05 09:46:05;;;;;;;34.95;7.85;;;;;;;;;;4993323;28;20065;-65
2022/04/05 09:48:36;;;;;;;35.17;8.52;;;;;;;;;;5006877;28;20092;-66
2022/04/05 09:51:12;;;;;;;29.13;7.70;;;;;;;;;;5008839;28;20421;-69
2022/04/05 09:53:57;;;;;;;29.92;8.15;;;;;;;;;;5018497;28;20054;-66
2022/04/05 09:56:38;;;;;;;29.20;7.38;;;;;;;;;;5021810;28;20048;-66
2022/04/05 09:59:18;;;;;;;29.83;6.90;;;;;;;;;;5042959;28;20062;-66
2022/04/05 10:01:51;;;;;;;26.48;7.22;;;;;;;;;;5026808;28;20053;-67
2022/04/05 10:04:23;;;;;;;25.25;6.47;;;;;;;;;;4983695;28;20057;-67
2022/04/05 10:06:53;;;;;;;25.95;6.10;;;;;;;;;;5031178;28;20057;-66
2022/04/05 10:09:26;;;;;;;30.65;6.40;;;;;;;;;;5031106;28;20061;-67
2022/04/05 10:11:58;;;;;;;31.27;6.95;;;;;;;;;;5031323;28;20064;-69
2022/04/05 10:14:29;;;;;;;32.13;7.13;;;;;;;;;;5050547;28;20057;-67
2022/04/05 10:17:00;;;;;;;19.65;5.90;;;;;;;;;;5050808;28;20096;-66
2022/04/05 10:19:33;;;;;;;22.48;6.72;;;;;;;;;;5016862;28;20556;-67
2022/04/05 10:22:03;;;;;;;;;;;;;;;;;;5018001;28;20049;-67
2022/04/05 10:24:34;;;;;;;20.92;5.40;;;;;;;;;;5050033;28;19921;-67
2022/04/05 10:27:08;;;;;;;21.67;6.00;;;;;;;;;;5050756;28;20068;-68
2022/04/05 10:29:39;;;;;;;18.88;5.90;;;;;;;;;;5048539;28;20048;-67
2022/04/05 10:32:59;;;;;;;22.73;6.07;;;;;;;;;;5018968;28;20068;-68
2022/04/05 10:35:36;;;;;;;20.42;5.25;;;;;;;;;;4935513;29;20051;-69
2022/04/05 10:38:18;;;;;;;22.95;7.10;;;;;;;;;;4952290;28;20063;-67
2022/04/05 10:41:18;;;;;;;27.42;7.05;;;;;;;;;;4951758;29;20551;-69
2022/04/05 10:44:18;;;;;;;22.73;7.28;;;;;;;;;;4974419;28;20514;-68
2022/04/05 10:46:58;;;;;;;25.42;7.15;;;;;;;;;;4990360;28;20054;-67
2022/04/05 10:49:52;;;;;;;19.25;5.40;;;;;;;;;;4979183;28;20090;-67
2022/04/05 10:52:27;;;;;;;22.52;5.75;;;;;;;;;;4941486;28;20058;-67
2022/04/05 10:55:04;;;;;;;20.50;6.18;;;;;;;;;;4970640;28;20058;-68
2022/04/05 10:57:36;;;;;;;21.95;7.15;;;;;;;;;;4970321;28;20062;-67
2022/04/05 11:00:14;;;;;;;18.17;5.25;;;;;;;;;;4970337;28;20065;-67
2022/04/05 11:03:01;;;;;;;18.85;6.53;;;;;;;;;;4976355;28;20066;-66
2022/04/05 11:05:38;;;;;;;17.33;6.35;;;;;;;;;;4979917;28;20069;-66
2022/04/05 11:08:17;;;;;;;17.48;6.20;;;;;;;;;;4961560;28;20054;-67
2022/04/05 11:10:52;;;;;;;18.95;6.70;;;;;;;;;;4995434;28;20053;-66
2022/04/05 11:13:30;;;;;;;18.45;7.07;;;;;;;;;;5013414;28;20424;-67
2022/04/05 11:16:01;;;;;;;;;;;;;;;;;;4939479;28;20047;-67
2022/04/05 11:18:34;;;;;;;17.38;5.97;;;;;;;;;;4954485;28;19983;-67
2022/04/05 11:21:08;;;;;;;10.18;4.28;;;;;;;;;;4959104;28;20434;-66
2022/04/05 11:23:52;;;;;;;10.88;3.70;;;;;;;;;;4951887;29;20110;-68
2022/04/05 11:26:39;;;;;;;6.68;2.50;;;;;;;;;;4919828;29;20089;-67
2022/04/05 11:29:20;;;;;;;5.60;2.85;;;;;;;;;;4924012;28;20051;-67
2022/04/05 11:32:08;;;;;;;4.20;1.80;;;;;;;;;;4970847;28;20059;-66
2022/04/05 11:34:46;;;;;;;7.25;2.83;;;;;;;;;;4981100;28;20087;-68
2022/04/05 11:37:34;;;;;;;5.32;2.03;;;;;;;;;;4937957;28;20156;-67
2022/04/05 11:40:06;;;;;;;4.32;1.92;;;;;;;;;;4953029;28;20047;-69
2022/04/05 11:42:39;;;;;;;4.45;2.08;;;;;;;;;;4984651;28;20054;-68
2022/04/05 11:45:12;;;;;;;4.50;1.88;;;;;;;;;;5008990;28;20049;-68
2022/04/05 11:47:50;;;;;;;4.45;2.75;;;;;;;;;;5059009;28;20057;-67
2022/04/05 11:50:22;;;;;;;4.80;2.13;;;;;;;;;;5070944;28;20048;-67
2022/04/05 11:52:53;;;;;;;5.03;2.47;;;;;;;;;;5072600;28;20062;-68
2022/04/05 11:58:13;;;;;;;5.60;2.80;;;;;;;;;;5066247;28;20511;-65
2022/04/05 12:00:54;;;;;;;5.78;3.08;;;;;;;;;;5065162;28;20048;-65
2022/04/05 12:03:25;;;;;;;5.95;2.50;;;;;;;;;;5076709;28;20043;-64
2022/04/05 12:05:56;;;;;;;4.32;2.45;;;;;;;;;;5066789;28;20047;-67
2022/04/05 12:08:26;;;;;;;4.57;2.20;;;;;;;;;;5033218;28;20135;-65
2022/04/05 12:10:58;;;;;;;5.70;2.40;;;;;;;;;;5069964;28;20044;-67
2022/04/05 12:13:30;;;;;;;4.32;2.35;;;;;;;;;;5070486;28;20036;-67
2022/04/05 12:16:04;;;;;;;4.63;2.53;;;;;;;;;;5086818;28;20522;-68
2022/04/05 12:18:34;;;;;;;6.93;3.10;;;;;;;;;;5076314;28;20419;-68
2022/04/05 12:21:09;;;;;;;5.72;2.95;;;;;;;;;;5070107;28;20045;-67
2022/04/05 12:23:42;;;;;;;6.13;2.97;;;;;;;;;;5072824;28;20407;-64
2022/04/05 12:26:14;;;;;;;5.57;2.65;;;;;;;;;;5080350;28;20059;-65
2022/04/05 12:28:54;;;;;;;;;;;;;;;;;;5044244;28;20056;-65
2022/04/05 12:31:30;;;;;;;5.60;2.60;;;;;;;;;;5069208;28;19930;-67
2022/04/05 12:34:13;;;;;;;4.88;2.80;;;;;;;;;;5053504;28;20162;-68
2022/04/05 12:37:00;;;;;;;6.65;3.38;;;;;;;;;;5043971;28;20415;-66
2022/04/05 12:39:41;;;;;;;8.48;2.72;;;;;;;;;;5089851;28;20397;-68
2022/04/05 12:42:14;;;;;;;6.43;3.15;;;;;;;;;;5070900;28;20055;-66
2022/04/05 12:44:56;;;;;;;6.30;3.10;;;;;;;;;;5054096;28;20051;-66
2022/04/05 12:47:28;;;;;;;7.20;3.30;;;;;;;;;;5089517;28;20516;-67
2022/04/05 12:50:04;;;;;;;9.65;4.07;;;;;;;;;;5089608;28;20063;-67
2022/04/05 12:52:36;;;;;;;10.93;4.40;;;;;;;;;;5076146;28;20048;-67
2022/04/05 12:55:18;;;;;;;6.72;3.20;;;;;;;;;;5053611;28;20044;-67
2022/04/05 12:57:53;;;;;;;5.95;3.45;;;;;;;;;;5062699;28;20435;-65
2022/04/05 13:00:32;;;;;;;8.27;3.80;;;;;;;;;;5046500;28;20055;-64
2022/04/05 13:03:12;;;;;;;6.35;3.65;;;;;;;;;;5087008;28;20055;-67
2022/04/05 13:08:41;;;;;;;5.57;3.08;;;;;;;;;;5069686;28;20056;-66
2022/04/05 13:11:30;;;;;;;8.90;4.90;;;;;;;;;;5071954;28;20055;-68
2022/04/05 13:14:06;;;;;;;5.82;2.63;;;;;;;;;;5071615;28;20044;-66
2022/04/05 13:16:38;;;;;;;6.07;3.13;;;;;;;;;;5076260;28;20043;-66
2022/04/05 13:19:21;;;;;;;5.47;3.10;;;;;;;;;;5082000;28;20048;-68
2022/04/05 13:21:53;;;;;;;7.85;4.38;;;;;;;;;;5084188;28;20045;-67
2022/04/05 13:24:38;;;;;;;11.95;6.20;;;;;;;;;;5082119;28;20044;-67
2022/04/05 13:27:09;;;;;;;;;;;;;;;;;;5030881;28;20107;-67
2022/04/05 13:29:42;;;;;;;7.43;3.65;;;;;;;;;;5013032;28;20404;-67
2022/04/05 13:32:17;;;;;;;6.93;3.13;;;;;;;;;;4970833;28;20058;-67
2022/04/05 13:34:48;;;;;;;9.43;3.75;;;;;;;;;;4948271;28;20064;-70
2022/04/05 13:37:24;;;;;;;5.65;3.35;;;;;;;;;;4972995;28;20058;-67
2022/04/05 13:39:58;;;;;;;8.07;4.20;;;;;;;;;;4940529;28;20054;-67
2022/04/05 13:42:29;;;;;;;9.45;3.95;;;;;;;;;;4933793;29;20060;-68
2022/04/05 13:45:00;;;;;;;7.45;3.08;;;;;;;;;;4934521;29;20459;-67
2022/04/05 13:47:30;;;;;;;6.32;3.33;;;;;;;;;;4892505;29;20060;-67
2022/04/05 13:50:02;;;;;;;6.97;3.55;;;;;;;;;;4923735;29;20063;-67
2022/04/05 13:52:32;;;;;;;12.77;4.93;;;;;;;;;;4934068;29;20070;-66
2022/04/05 13:55:04;;;;;;;7.03;4.13;;;;;;;;;;4934207;29;20063;-67
2022/04/05 13:57:35;;;;;;;6.97;3.03;;;;;;;;;;4930851;29;20067;-68
2022/04/05 14:00:07;;;;;;;6.32;3.58;;;;;;;;;;4930924;29;20396;-67
2022/04/05 14:02:38;;;;;;;8.90;3.70;;;;;;;;;;4934350;29;20056;-65
2022/04/05 14:05:09;;;;;;;7.03;3.70;;;;;;;;;;4955082;28;20055;-66
2022/04/05 14:07:41;;;;;;;6.85;3.05;;;;;;;;;;4959506;28;20070;-65
2022/04/05 14:10:14;;;;;;;6.03;3.22;;;;;;;;;;4964826;28;20058;-65
2022/04/05 14:13:05;;;;;;;6.57;2.90;;;;;;;;;;4972289;28;20054;-66
2022/04/05 14:15:36;;;;;;;9.48;4.50;;;;;;;;;;4956029;28;20067;-67
2022/04/05 14:18:07;;;;;;;5.35;3.10;;;;;;;;;;4972031;28;20404;-66
2022/04/05 14:20:38;;;;;;;6.35;3.22;;;;;;;;;;4999799;28;20049;-66
2022/04/05 14:23:08;;;;;;;5.75;2.97;;;;;;;;;;4978140;28;20058;-66
2022/04/05 14:25:39;;;;;;;6.50;3.55;;;;;;;;;;5010511;28;20069;-66
2022/04/05 14:28:10;;;;;;;4.68;2.22;;;;;;;;;;5026838;28;20054;-65
2022/04/05 14:30:41;;;;;;;5.30;2.92;;;;;;;;;;5010832;28;20061;-66
2022/04/05 14:33:12;;;;;;;8.13;3.33;;;;;;;;;;5049860;28;20053;-66
2022/04/05 14:35:42;;;;;;;6.30;2.33;;;;;;;;;;5050429;28;20657;-65
2022/04/05 14:38:13;;;;;;;7.05;3.78;;;;;;;;;;4990818;28;20057;-67
2022/04/05 14:40:45;;;;;;;9.15;3.75;;;;;;;;;;4983287;28;20062;-68
2022/04/05 14:43:17;;;;;;;6.82;3.83;;;;;;;;;;4984412;28;20055;-68
2022/04/05 14:45:50;;;;;;;5.40;2.72;;;;;;;;;;4978782;28;20477;-68
2022/04/05 14:48:22;;;;;;;6.55;3.47;;;;;;;;;;5007481;28;20054;-69
2022/04/05 14:50:56;;;;;;;6.10;2.80;;;;;;;;;;5009747;28;20062;-69
2022/04/05 14:53:27;;;;;;;5.15;2.92;;;;;;;;;;5029065;28;20050;-70
2022/04/05 14:55:59;;;;;;;5.72;3.10;;;;;;;;;;4997479;28;20563;-68
2022/04/05 14:58:31;;;;;;;6.03;2.95;;;;;;;;;;4980480;28;20053;-66
2022/04/05 15:01:03;;;;;;;8.93;4.05;;;;;;;;;;4954947;28;20051;-66
2022/04/05 15:03:34;;;;;;;8.55;3.33;;;;;;;;;;4971174;28;20513;-66
2022/04/05 15:06:05;;;;;;;5.35;3.03;;;;;;;;;;4938919;28;20053;-68
2022/04/05 15:08:37;;;;;;;4.75;2.90;;;;;;;;;;4971057;28;20410;-67
2022/04/05 15:11:07;;;;;;;6.05;3.15;;;;;;;;;;4889317;29;20567;-70
2022/04/05 15:13:38;;;;;;;4.28;2.30;;;;;;;;;;4928628;29;20068;-69
2022/04/05 15:16:29;;;;;;;;;;;;;;;;;;4913970;29;20056;-67
2022/04/05 15:19:00;;;;;;;4.07;2.40;;;;;;;;;;4913750;29;19923;-67
2022/04/05 15:21:30;;;;;;;3.42;1.88;;;;;;;;;;4913683;29;20044;-67
2022/04/05 15:24:01;;;;;;;5.72;2.40;;;;;;;;;;4913245;29;20063;-68
2022/04/05 15:26:31;;;;;;;7.78;3.15;;;;;;;;;;4932283;29;20070;-66
2022/04/05 15:29:02;;;;;;;5.15;2.55;;;;;;;;;;4932281;29;20419;-68